Terminal Aerodrome Forecast
Issued by NWS

Home | Current Version | Previous Version | Text Only | Print | Product List | Glossary On
Versions: 1 2 3 4 5 6 7 8 9 10 11 12 13
027
FTUS46 KMTR 261127
TAFOAK
TAF
KOAK 261127Z 2612/2718 VRB03KT P6SM FEW050
     FM261900 25005KT P6SM SCT050 BKN200
     FM262300 28013KT P6SM SCT025 BKN100
     FM270300 27008KT P6SM SCT025 BKN060
     FM270600 25008KT P6SM VCSH FEW025 BKN060
     FM271200 21006KT P6SM SCT025 SCT060=

USA.gov is the U.S. government's official web portal to all federal, state and local government web resources and services.